Reklama

Seznam meteostanic a jejich METAR

Vyhledat místa podle abecedy:
A B C D E F G H I J K L M N O P Q R S T U V W X Y Z

Filtrovat:

ID stanice:
a/nebo
Název místa (fulltext):
 
Místo (ID)Naposledy načteno 
Faro (LPFR) 31.05.2020 04:00 UTC Zobrazit METAR
LPFR 310400Z 09006KT CAVOK 21/13 Q1009
Florence (LIRQ) 31.05.2020 03:50 UTC Zobrazit METAR
LIRQ 310350Z 13003KT CAVOK 11/09 Q1015
Foggia, Gino Lisa (LIBF) 30.05.2020 15:50 UTC Zobrazit METAR
LIBF 301550Z VRB02KT 9999 FEW030 SCT060 16/13 Q1015
Fort de France (TFFF) 31.05.2020 04:00 UTC Zobrazit METAR
TFFF 310400Z AUTO 11010KT 9999 SCT022 BKN033 BKN056 27/24 Q1015
Frankfurt/ Main (EDDF) 31.05.2020 03:50 UTC Zobrazit METAR
EDDF 310350Z 02009KT CAVOK 12/05 Q1021 NOSIG
Freetown (GFLL) 05.05.2020 19:00 UTC Zobrazit METAR
GFLL 051900Z 27009KT 9999 SCT013 30/24 Q1008
Funafuti (NGFU) 30.05.2020 15:00 UTC Zobrazit METAR
NGFU 301500Z 10005KT 9999 FEW020 BKN300 29/26 Q1011
Reklama

Lunární kalendář

  • 05.06.Fáze měsíce uplnek
  • 13.06.Fáze měsíce posl_ctvrt
  • 21.06.Fáze měsíce nov
  • 28.06.Fáze měsíce prv_ctvrt



Reklama
Meteodomečky

Počasí na Váš email

Emaily jsou bez reklamy a bez spamu



Odhlásit newsletter

Reklama


Další české internetové stránky (nejen) o počasí najdete v katalogu TOPlist - weby o počasí nebo vyhledejte na internetu, co jste tu na 🌞 Slunečnu ⛅ zatím nenašli:

Reklama